Time;durP1;ratioP1;P1;durP2;ratioP2;P2;SDS_P1;SDS_P2;PMS_P1;PMS_P2;Temp;Humidity;BMP_temperature;BMP_pressure;BME280_temperature;BME280_humidity;BME280_pressure;Samples;Min_cycle;Max_cycle;Signal;HPM_P1;HPM_P2
2022/07/21 00:01:43;;;;;;;35.55;22.88;;;;;;;19.63;92.41;101749.34;5037246;28;20034;-88
2022/07/21 00:04:08;;;;;;;35.80;23.42;;;;;;;19.63;93.31;101741.47;5046519;28;20027;-88
2022/07/21 00:06:33;;;;;;;30.73;20.47;;;;;;;19.61;90.32;101742.44;5042395;28;20463;-89
2022/07/21 00:08:59;;;;;;;30.23;20.33;;;;;;;19.62;92.93;101736.25;5049118;28;20286;-88
2022/07/21 00:11:24;;;;;;;32.38;20.77;;;;;;;19.58;92.70;101738.16;5052955;28;20326;-88
2022/07/21 00:13:49;;;;;;;29.60;19.55;;;;;;;19.55;91.89;101730.44;5049426;28;20057;-88
2022/07/21 00:16:15;;;;;;;29.30;19.02;;;;;;;19.54;92.75;101734.00;5044307;28;20036;-89
2022/07/21 00:18:40;;;;;;;29.00;17.55;;;;;;;19.51;90.46;101735.91;5037533;28;20369;-88
2022/07/21 00:21:06;;;;;;;25.57;17.23;;;;;;;19.45;91.46;101742.25;5029411;28;20033;-88
2022/07/21 00:23:31;;;;;;;25.40;16.67;;;;;;;19.43;92.25;101732.75;5035517;28;20378;-88
2022/07/21 00:25:56;;;;;;;24.20;16.05;;;;;;;19.39;91.49;101737.28;5043326;28;20522;-88
2022/07/21 00:28:22;;;;;;;26.00;15.93;;;;;;;19.37;91.35;101739.16;5035282;28;20258;-87
2022/07/21 00:30:47;;;;;;;24.02;15.80;;;;;;;19.33;91.21;101742.84;5044822;28;20017;-88
2022/07/21 00:33:12;;;;;;;26.50;16.27;;;;;;;19.33;92.58;101743.69;5056428;28;20028;-88
2022/07/21 00:35:38;;;;;;;22.53;14.67;;;;;;;19.27;91.55;101737.84;5062270;28;20036;-88
2022/07/21 00:38:04;;;;;;;24.17;15.77;;;;;;;19.21;91.85;101732.88;5056244;28;20296;-88
2022/07/21 00:40:30;;;;;;;25.08;15.43;;;;;;;19.19;92.50;101735.56;5042088;28;20026;-88
2022/07/21 00:42:56;;;;;;;25.60;15.30;;;;;;;19.15;91.86;101735.78;5061034;28;20076;-88
2022/07/21 00:45:22;;;;;;;21.90;14.38;;;;;;;19.13;91.33;101735.00;5053455;28;20560;-89
2022/07/21 00:47:48;;;;;;;21.60;14.90;;;;;;;19.11;90.48;101731.56;5051994;28;20036;-89
2022/07/21 00:50:18;;;;;;;21.70;14.90;;;;;;;19.07;90.50;101732.66;5060301;28;20026;-89
2022/07/21 00:52:47;;;;;;;22.17;14.90;;;;;;;19.03;90.32;101731.09;5062331;28;20020;-89
2022/07/21 00:55:15;;;;;;;23.30;14.98;;;;;;;19.00;91.46;101729.44;5073545;28;20209;-88
2022/07/21 00:57:42;;;;;;;24.67;14.95;;;;;;;18.99;92.69;101729.50;5069722;28;20226;-88
2022/07/21 01:00:14;;;;;;;22.58;14.73;;;;;;;18.97;92.57;101723.47;5066713;28;20458;-88
2022/07/21 01:02:40;;;;;;;24.50;15.35;;;;;;;18.94;90.73;101720.06;5044215;28;20021;-88
2022/07/21 01:05:08;;;;;;;24.88;15.13;;;;;;;18.87;89.94;101716.00;5061068;28;20094;-89
2022/07/21 01:07:34;;;;;;;22.58;14.57;;;;;;;18.82;89.65;101715.34;5042615;28;20037;-90
2022/07/21 01:10:00;;;;;;;23.50;15.13;;;;;;;18.81;89.84;101715.41;5055144;28;20021;-89
2022/07/21 01:12:25;;;;;;;22.25;14.77;;;;;;;18.78;89.57;101711.13;5060426;28;20028;-88
2022/07/21 01:14:51;;;;;;;24.02;14.82;;;;;;;18.77;90.48;101703.31;5044989;28;20043;-89
2022/07/21 01:17:17;;;;;;;25.35;15.77;;;;;;;18.78;92.81;101702.41;5066039;28;20025;-89
2022/07/21 01:19:43;;;;;;;23.42;15.45;;;;;;;18.74;90.63;101701.69;5043033;28;20024;-90
2022/07/21 01:22:08;;;;;;;23.73;15.65;;;;;;;18.72;93.42;101708.78;5057191;28;20028;-90
2022/07/21 01:24:33;;;;;;;26.70;16.35;;;;;;;18.75;92.99;101710.44;5053292;28;20031;-89
2022/07/21 01:26:59;;;;;;;28.57;16.43;;;;;;;18.70;92.43;101710.63;5048613;28;20030;-90
2022/07/21 01:29:24;;;;;;;26.67;16.83;;;;;;;18.67;93.19;101707.28;5050497;28;20357;-89
2022/07/21 01:31:51;;;;;;;24.08;16.30;;;;;;;18.62;93.30;101702.25;5039700;28;20395;-89
2022/07/21 01:34:18;;;;;;;24.73;16.08;;;;;;;18.57;93.74;101693.69;5050127;28;20059;-89
2022/07/21 01:36:43;;;;;;;26.58;16.25;;;;;;;18.55;93.92;101708.63;5062237;28;20029;-89
2022/07/21 01:41:52;;;;;;;24.95;16.13;;;;;;;18.49;94.03;101695.78;5057434;28;20086;-89
2022/07/21 01:44:18;;;;;;;27.35;16.50;;;;;;;18.46;94.20;101694.13;5067246;28;20025;-89
2022/07/21 01:46:46;;;;;;;25.42;17.20;;;;;;;18.45;94.18;101697.66;5051328;28;20074;-90
2022/07/21 01:49:14;;;;;;;25.58;16.38;;;;;;;18.43;94.01;101699.50;5051010;28;20033;-87
2022/07/21 01:51:39;;;;;;;26.83;17.17;;;;;;;18.41;94.60;101695.25;5044021;28;20032;-86
2022/07/21 01:54:06;;;;;;;27.83;17.13;;;;;;;18.41;94.75;101692.63;5055991;28;20028;-86
2022/07/21 01:56:33;;;;;;;27.48;17.27;;;;;;;18.36;94.69;101699.81;5051561;28;20035;-86
2022/07/21 01:58:58;;;;;;;26.55;17.38;;;;;;;18.36;94.81;101699.81;5049610;28;20037;-86
2022/07/21 02:01:26;;;;;;;26.65;17.10;;;;;;;18.40;95.35;101711.91;5058679;28;20028;-86
2022/07/21 02:03:53;;;;;;;25.20;16.88;;;;;;;18.44;96.00;101709.09;5071302;28;20037;-86
2022/07/21 02:06:19;;;;;;;27.60;17.55;;;;;;;18.44;94.60;101709.09;5065823;28;20052;-86
2022/07/21 02:08:45;;;;;;;27.67;17.55;;;;;;;18.46;92.81;101715.13;5047777;28;20062;-87
2022/07/21 02:11:11;;;;;;;29.38;17.25;;;;;;;18.52;95.23;101708.75;5066257;28;20036;-86
2022/07/21 02:13:37;;;;;;;28.77;17.55;;;;;;;18.51;94.45;101694.78;5057655;28;20033;-86
2022/07/21 02:16:03;;;;;;;28.53;17.23;;;;;;;18.52;92.55;101706.13;5072064;28;20097;-86
2022/07/21 02:18:28;;;;;;;28.67;17.23;;;;;;;18.52;92.96;101700.88;5060412;28;20888;-90
2022/07/21 02:20:54;;;;;;;27.13;17.15;;;;;;;18.55;93.55;101706.00;5053926;28;20094;-89
2022/07/21 02:23:21;;;;;;;29.90;18.60;;;;;;;18.57;95.18;101706.81;5056620;28;20111;-90
2022/07/21 02:25:47;;;;;;;27.88;17.98;;;;;;;18.60;93.23;101698.81;5066688;28;20032;-89
2022/07/21 02:28:13;;;;;;;25.67;16.75;;;;;;;18.58;92.50;101700.66;5052367;28;20037;-90
2022/07/21 02:30:38;;;;;;;29.50;17.80;;;;;;;18.60;94.85;101695.34;5058983;28;20532;-90
2022/07/21 02:33:03;;;;;;;29.42;17.63;;;;;;;18.62;95.20;101702.25;5065832;28;20028;-90
2022/07/21 02:35:29;;;;;;;30.20;17.55;;;;;;;18.58;93.96;101698.03;5056296;28;20393;-91
2022/07/21 02:37:54;;;;;;;28.33;17.48;;;;;;;18.56;94.14;101697.22;5057743;28;20033;-90
2022/07/21 02:40:20;;;;;;;31.38;17.70;;;;;;;18.53;92.45;101692.09;5058973;28;20083;-90
2022/07/21 02:42:45;;;;;;;30.30;17.52;;;;;;;18.50;93.04;101687.81;5068509;28;20119;-90
2022/07/21 02:45:11;;;;;;;28.97;17.43;;;;;;;18.49;93.25;101690.53;5053890;28;20078;-90
2022/07/21 02:47:49;;;;;;;31.10;18.08;;;;;;;18.50;93.11;101687.81;5047950;28;20287;-90
2022/07/21 02:50:16;;;;;;;30.92;18.25;;;;;;;18.48;93.72;101681.78;5063565;28;20033;-91
2022/07/21 02:52:41;;;;;;;28.92;17.98;;;;;;;18.48;94.06;101688.81;5071369;28;20036;-91
2022/07/21 02:55:07;;;;;;;30.27;17.92;;;;;;;18.52;95.14;101683.34;5070871;28;20028;-91
2022/07/21 02:57:33;;;;;;;29.77;18.20;;;;;;;18.49;93.36;101677.41;5057567;28;20093;-90
2022/07/21 02:59:58;;;;;;;29.92;17.17;;;;;;;18.50;92.98;101679.06;5062543;28;20508;-91
2022/07/21 03:02:23;;;;;;;29.80;18.43;;;;;;;18.50;93.04;101679.06;5066904;28;20025;-91
2022/07/21 03:04:48;;;;;;;29.25;17.77;;;;;;;18.50;92.22;101673.81;5065408;28;20627;-91
2022/07/21 03:07:14;;;;;;;32.03;17.70;;;;;;;18.53;95.40;101689.47;5062947;28;20112;-91
2022/07/21 03:09:39;;;;;;;31.07;18.77;;;;;;;18.53;93.37;101687.69;5055108;28;20847;-91
2022/07/21 03:12:05;;;;;;;33.17;19.07;;;;;;;18.52;92.95;101674.63;5059447;28;20278;-91
2022/07/21 03:14:30;;;;;;;30.58;17.20;;;;;;;18.54;92.65;101680.66;5068077;28;20323;-91
2022/07/21 03:16:57;;;;;;;32.17;18.90;;;;;;;18.56;93.47;101683.28;5058427;28;20115;-91
2022/07/21 03:19:22;;;;;;;34.90;19.38;;;;;;;18.54;94.65;101678.91;5062759;28;20432;-91
2022/07/21 03:21:48;;;;;;;34.40;19.40;;;;;;;18.53;92.88;101677.19;5063277;28;20033;-90
2022/07/21 03:24:13;;;;;;;29.52;18.15;;;;;;;18.54;92.75;101676.28;5066748;28;20059;-91
2022/07/21 03:26:38;;;;;;;32.07;18.77;;;;;;;18.55;93.88;101679.75;5051474;28;20056;-92
2022/07/21 03:29:04;;;;;;;32.78;19.80;;;;;;;18.55;94.87;101677.13;5064292;28;20295;-92
2022/07/21 03:31:29;;;;;;;37.72;19.70;;;;;;;18.60;95.01;101672.56;5053830;28;20024;-92
2022/07/21 03:33:55;;;;;;;29.90;18.27;;;;;;;18.58;93.93;101679.63;5070815;28;20445;-92
2022/07/21 03:36:22;;;;;;;33.47;19.17;;;;;;;18.58;94.63;101674.38;5059269;28;20024;-92
2022/07/21 03:38:48;;;;;;;34.25;19.52;;;;;;;18.56;93.56;101665.72;5066290;28;20053;-92
2022/07/21 03:41:13;;;;;;;35.03;19.98;;;;;;;18.57;94.57;101684.94;5037615;28;20059;-91
2022/07/21 03:43:38;;;;;;;36.13;20.73;;;;;;;18.59;95.80;101686.59;5057488;28;20083;-92
2022/07/21 03:46:04;;;;;;;38.92;20.35;;;;;;;18.57;95.49;101674.44;5052207;28;20103;-92
2022/07/21 03:48:29;;;;;;;38.75;20.73;;;;;;;18.60;96.45;101692.72;5070577;28;20036;-88
2022/07/21 03:50:54;;;;;;;35.50;19.40;;;;;;;18.59;94.18;101697.09;5042179;28;20036;-87
2022/07/21 03:53:20;;;;;;;40.15;21.38;;;;;;;18.60;92.85;101698.81;5048118;28;20067;-87
2022/07/21 03:55:45;;;;;;;36.88;21.13;;;;;;;18.59;94.08;101696.25;5057823;28;20021;-87
2022/07/21 03:58:11;;;;;;;36.38;21.20;;;;;;;18.56;93.43;101691.97;5061328;28;20041;-87
2022/07/21 04:00:40;;;;;;;36.70;20.70;;;;;;;18.57;94.92;101693.69;5038244;28;20113;-87
2022/07/21 04:03:07;;;;;;;40.92;21.05;;;;;;;18.54;95.46;101689.41;5069095;28;20396;-87
2022/07/21 04:05:33;;;;;;;39.15;21.25;;;;;;;18.55;93.49;101700.75;5067303;28;20048;-88
2022/07/21 04:07:59;;;;;;;37.42;21.55;;;;;;;18.55;94.01;101695.50;5041118;28;20034;-87
2022/07/21 04:10:31;;;;;;;39.83;21.20;;;;;;;18.58;95.69;101692.78;5033475;28;20032;-86
2022/07/21 04:12:58;;;;;;;38.63;21.00;;;;;;;18.58;94.73;101695.41;5044531;28;20038;-87
2022/07/21 04:15:23;;;;;;;36.38;20.02;;;;;;;18.58;92.89;101695.41;5041235;28;20025;-87
2022/07/21 04:17:49;;;;;;;36.70;20.65;;;;;;;18.59;95.17;101691.84;5045979;28;20069;-87
2022/07/21 04:20:15;;;;;;;38.75;21.13;;;;;;;18.59;93.31;101686.59;5055197;28;20017;-87
2022/07/21 04:22:41;;;;;;;40.53;21.50;;;;;;;18.58;94.23;101690.13;5055056;28;20478;-86
2022/07/21 04:25:09;;;;;;;35.42;20.50;;;;;;;18.57;94.66;101688.44;5042136;28;20029;-87
2022/07/21 04:27:36;;;;;;;37.05;21.05;;;;;;;18.56;94.72;101691.97;5045761;28;20024;-87
2022/07/21 04:30:03;;;;;;;40.28;21.75;;;;;;;18.57;94.80;101691.06;5043429;28;20021;-87
2022/07/21 04:32:29;;;;;;;36.20;20.30;;;;;;;18.59;94.86;101691.84;5070735;28;20078;-87
2022/07/21 04:34:54;;;;;;;38.20;20.95;;;;;;;18.59;94.54;101693.63;5073772;28;20028;-87
2022/07/21 04:37:19;;;;;;;38.08;21.08;;;;;;;18.61;95.04;101690.03;5061385;28;20220;-87
2022/07/21 04:39:45;;;;;;;35.70;20.37;;;;;;;18.58;94.02;101679.63;5038818;28;20018;-87
2022/07/21 04:42:10;;;;;;;36.08;19.45;;;;;;;18.62;94.75;101690.88;5068784;28;20266;-87
2022/07/21 04:44:35;;;;;;;36.08;20.10;;;;;;;18.59;93.05;101686.59;5064151;28;20027;-87
2022/07/21 04:47:03;;;;;;;35.13;19.15;;;;;;;18.58;92.33;101694.53;5058863;28;20028;-88
2022/07/21 04:49:29;;;;;;;36.38;19.30;;;;;;;18.56;93.42;101683.28;5068945;28;20075;-93
2022/07/21 04:51:54;;;;;;;32.67;19.58;;;;;;;18.56;93.73;101684.09;5044942;28;20033;-91
2022/07/21 04:54:19;;;;;;;33.37;19.07;;;;;;;18.56;93.78;101696.41;5044709;28;21469;-91
2022/07/21 04:56:45;;;;;;;37.13;19.95;;;;;;;18.56;93.14;101691.97;5041411;28;20354;-93
2022/07/21 04:59:11;;;;;;;32.03;18.63;;;;;;;18.56;93.71;101688.53;5045013;28;20044;-93
2022/07/21 05:01:37;;;;;;;35.03;18.65;;;;;;;18.56;93.20;101694.59;5066312;28;20099;-93
2022/07/21 05:04:04;;;;;;;32.70;19.20;;;;;;;18.59;94.39;101694.47;5072237;28;20030;-94
2022/07/21 05:06:29;;;;;;;31.25;18.33;;;;;;;18.58;93.81;101694.53;5058439;28;20127;-93
2022/07/21 05:08:54;;;;;;;35.63;18.65;;;;;;;18.57;93.46;101705.97;5049416;28;20131;-94
2022/07/21 05:11:20;;;;;;;30.92;18.33;;;;;;;18.58;94.78;101703.28;5030828;28;20025;-93
2022/07/21 05:13:45;;;;;;;33.20;17.98;;;;;;;18.58;93.64;101698.03;5042376;28;20075;-92
2022/07/21 05:16:11;;;;;;;31.90;18.17;;;;;;;18.59;92.87;101702.34;5032794;28;20047;-92
2022/07/21 05:18:36;;;;;;;32.53;17.55;;;;;;;18.59;93.38;101694.47;5048545;28;20054;-92
2022/07/21 05:21:01;;;;;;;34.38;18.10;;;;;;;18.58;94.56;101691.91;5035548;28;20028;-92
2022/07/21 05:23:27;;;;;;;29.20;16.95;;;;;;;18.63;95.00;101695.22;5044799;28;20064;-94
2022/07/21 05:25:52;;;;;;;28.85;16.60;;;;;;;18.61;93.59;101690.03;5038197;28;20025;-93
2022/07/21 05:28:17;;;;;;;30.23;17.60;;;;;;;18.61;93.43;101692.66;5038681;28;20472;-93
2022/07/21 05:30:43;;;;;;;29.37;16.47;;;;;;;18.64;93.04;101703.00;5034633;28;20499;-93
2022/07/21 05:33:08;;;;;;;29.08;16.58;;;;;;;18.66;93.01;101703.81;5043563;28;20294;-93
2022/07/21 05:35:33;;;;;;;33.00;17.67;;;;;;;18.68;93.36;101698.50;5041124;28;20032;-93
2022/07/21 05:37:59;;;;;;;30.05;17.58;;;;;;;18.70;93.71;101692.22;5042293;28;20103;-92
2022/07/21 05:40:24;;;;;;;33.92;17.55;;;;;;;18.72;94.48;101686.91;5036217;28;20025;-93
2022/07/21 05:42:50;;;;;;;32.55;17.85;;;;;;;18.70;93.27;101689.59;5050445;28;20051;-92
2022/07/21 05:45:15;;;;;;;31.50;18.17;;;;;;;18.72;95.07;101684.28;5067605;28;20029;-92
2022/07/21 05:47:41;;;;;;;31.90;18.52;;;;;;;18.78;94.72;101692.75;5054278;28;20036;-92
2022/07/21 05:50:08;;;;;;;32.28;18.58;;;;;;;18.85;95.54;101688.06;5030339;28;20052;-92
2022/07/21 05:52:33;;;;;;;31.17;17.48;;;;;;;18.85;92.87;101693.31;5043684;28;20037;-92
2022/07/21 05:54:58;;;;;;;27.38;16.77;;;;;;;18.85;92.94;101691.56;5036416;28;20029;-93
2022/07/21 05:57:24;;;;;;;29.33;17.67;;;;;;;18.87;92.79;101689.72;5038860;28;20086;-92
2022/07/21 05:59:49;;;;;;;30.00;17.48;;;;;;;18.88;92.66;101686.19;5035335;28;20294;-93
2022/07/21 06:02:15;;;;;;;30.50;17.92;;;;;;;18.87;92.37;101683.63;5037468;28;20068;-93
2022/07/21 06:04:40;;;;;;;31.33;17.67;;;;;;;18.85;92.20;101675.78;5034489;28;20021;-92
2022/07/21 06:07:05;;;;;;;32.65;18.65;;;;;;;18.84;93.57;101681.09;5045742;28;20522;-91
2022/07/21 06:09:31;;;;;;;32.65;18.05;;;;;;;18.88;94.46;101686.19;5044468;28;20139;-91
2022/07/21 06:11:56;;;;;;;30.88;17.65;;;;;;;18.92;93.88;101679.00;5047512;28;20033;-93
2022/07/21 06:14:23;;;;;;;33.65;18.02;;;;;;;18.96;92.17;101690.25;5046436;28;20048;-91
2022/07/21 06:16:49;;;;;;;30.17;17.25;;;;;;;18.94;91.57;101693.78;5037394;28;20029;-91
2022/07/21 06:19:14;;;;;;;31.67;18.10;;;;;;;18.94;92.45;101692.94;5040214;28;20020;-91
2022/07/21 06:21:42;;;;;;;31.85;17.90;;;;;;;18.94;92.88;101693.78;5057487;28;20390;-92
2022/07/21 06:24:08;;;;;;;38.25;18.20;;;;;;;18.98;91.46;101688.38;5053272;28;20025;-91
2022/07/21 06:26:34;;;;;;;38.00;19.52;;;;;;;18.93;90.48;101680.72;5037151;28;20406;-91
2022/07/21 06:28:59;;;;;;;35.50;18.15;;;;;;;18.95;92.33;101684.13;5040911;28;20029;-91
2022/07/21 06:31:25;;;;;;;41.35;20.33;;;;;;;19.02;93.16;101682.94;5042143;28;20064;-92
2022/07/21 06:33:50;;;;;;;39.03;19.77;;;;;;;19.13;93.38;101690.31;5040476;28;20025;-92
2022/07/21 06:36:16;;;;;;;38.10;19.65;;;;;;;19.27;90.80;101691.38;5050690;28;20016;-91
2022/07/21 06:38:41;;;;;;;35.08;19.35;;;;;;;19.40;90.28;101685.56;5040087;28;20049;-92
2022/07/21 06:41:06;;;;;;;43.47;20.45;;;;;;;19.49;90.50;101695.69;5034586;28;20024;-92
2022/07/21 06:43:33;;;;;;;41.95;20.42;;;;;;;19.57;88.95;101699.66;5035245;28;20283;-91
2022/07/21 06:45:58;;;;;;;40.03;20.30;;;;;;;19.56;88.04;101690.06;5034185;28;20021;-89
2022/07/21 06:48:24;;;;;;;44.90;21.77;;;;;;;19.58;88.82;101696.09;5058095;28;20040;-88
2022/07/21 06:50:50;;;;;;;46.10;21.35;;;;;;;19.66;89.00;101693.94;5047276;28;20039;-86
2022/07/21 06:53:16;;;;;;;41.28;21.38;;;;;;;19.83;91.68;101694.91;5071375;28;20031;-87
2022/07/21 06:55:43;;;;;;;43.40;21.90;;;;;;;20.04;89.50;101688.59;5052887;28;20036;-89
2022/07/21 06:58:10;;;;;;;43.90;21.73;;;;;;;20.22;89.13;101700.84;5041275;28;20028;-90
2022/07/21 07:00:36;;;;;;;51.83;22.27;;;;;;;20.27;86.53;101701.47;5039229;28;20031;-88
2022/07/21 07:03:01;;;;;;;43.28;22.15;;;;;;;20.27;86.10;101709.34;5045084;28;20033;-83
2022/07/21 07:05:28;;;;;;;46.20;21.63;;;;;;;20.21;85.60;101709.66;5036114;28;20049;-86
2022/07/21 07:07:53;;;;;;;44.35;22.10;;;;;;;20.19;85.36;101706.28;5030481;28;20392;-85
2022/07/21 07:10:18;;;;;;;49.10;23.80;;;;;;;20.19;85.18;101708.06;5046742;28;20497;-87
2022/07/21 07:12:44;;;;;;;43.78;22.17;;;;;;;20.22;85.46;101703.47;5036640;28;22287;-86
2022/07/21 07:15:09;;;;;;;45.10;23.60;;;;;;;20.28;84.46;101697.91;5031968;28;20513;-86
2022/07/21 07:17:35;;;;;;;43.67;22.50;;;;;;;20.37;85.91;101699.25;5032077;28;20763;-85
2022/07/21 07:20:00;;;;;;;38.50;21.87;;;;;;;20.44;85.50;101703.28;5048548;28;20167;-84
2022/07/21 07:22:26;;;;;;;46.22;22.67;;;;;;;20.45;84.52;101694.47;5039131;28;20318;-83
2022/07/21 07:24:51;;;;;;;41.78;22.08;;;;;;;20.40;84.05;101702.56;5040245;28;20052;-84
2022/07/21 07:27:16;;;;;;;51.23;23.30;;;;;;;20.34;83.85;101705.53;5052600;28;20428;-83
2022/07/21 07:29:42;;;;;;;39.40;21.65;;;;;;;20.30;85.01;101703.09;5040631;28;20789;-88
2022/07/21 07:32:07;;;;;;;42.05;21.42;;;;;;;20.26;84.47;101710.31;5036635;28;20505;-88
2022/07/21 07:34:33;;;;;;;40.92;21.45;;;;;;;20.23;85.26;101710.44;5063207;28;20127;-88
2022/07/21 07:36:58;;;;;;;35.63;20.48;;;;;;;20.27;86.72;101717.25;5070616;28;20029;-88
2022/07/21 07:39:23;;;;;;;42.53;21.40;;;;;;;20.29;85.24;101712.78;5060495;28;20487;-87
2022/07/21 07:41:49;;;;;;;38.63;21.43;;;;;;;20.29;86.09;101707.50;5036972;28;20648;-87
2022/07/21 07:44:14;;;;;;;39.60;21.13;;;;;;;20.28;85.32;101703.16;5042562;28;20290;-85
2022/07/21 07:46:39;;;;;;;42.63;21.87;;;;;;;20.32;85.50;101707.38;5032372;28;20041;-87
2022/07/21 07:49:04;;;;;;;40.20;21.52;;;;;;;20.39;84.88;101707.94;5028947;28;20308;-87
2022/07/21 07:51:30;;;;;;;40.27;20.53;;;;;;;20.43;83.63;101699.78;5034302;28;20495;-88
2022/07/21 07:53:55;;;;;;;41.22;21.40;;;;;;;20.41;82.88;101709.53;5043240;28;20325;-88
2022/07/21 07:56:20;;;;;;;40.07;21.50;;;;;;;20.40;83.54;101707.00;5042485;28;20040;-89
2022/07/21 07:58:46;;;;;;;37.83;20.30;;;;;;;20.40;82.76;101714.91;5052498;28;20352;-85
2022/07/21 08:01:11;;;;;;;37.58;21.02;;;;;;;20.39;84.17;101719.34;5061021;28;20074;-85
2022/07/21 08:03:36;;;;;;;41.25;21.05;;;;;;;20.37;83.93;101713.28;5046889;28;20055;-84
2022/07/21 08:06:03;;;;;;;37.03;20.98;;;;;;;20.35;84.11;101720.41;5065344;28;20044;-84
2022/07/21 08:08:29;;;;;;;39.70;21.15;;;;;;;20.30;83.37;101721.53;5059829;28;20021;-85
2022/07/21 08:10:55;;;;;;;37.80;19.15;;;;;;;20.22;83.63;101721.06;5059701;28;20111;-85
2022/07/21 08:13:21;;;;;;;30.33;17.48;;;;;;;20.15;83.67;101728.41;5069213;28;20652;-84
2022/07/21 08:15:48;;;;;;;26.90;15.65;;;;;;;20.06;84.25;101720.97;5069946;28;20033;-85
2022/07/21 08:18:14;;;;;;;26.30;15.02;;;;;;;19.99;85.36;101736.19;5063393;28;20387;-84
2022/07/21 08:20:39;;;;;;;22.58;12.88;;;;;;;19.85;87.12;101727.28;5063880;28;20506;-87
2022/07/21 08:23:05;;;;;;;23.10;11.87;;;;;;;19.70;89.90;101737.63;5068782;28;20031;-84
2022/07/21 08:25:31;;;;;;;18.80;10.68;;;;;;;19.54;90.36;101743.66;5056695;28;20378;-84
2022/07/21 08:27:56;;;;;;;19.85;10.60;;;;;;;19.32;92.15;101738.50;5069470;28;20073;-83
2022/07/21 08:30:22;;;;;;;19.23;10.37;;;;;;;19.10;94.20;101743.03;5064257;28;20021;-83
2022/07/21 08:32:47;;;;;;;17.95;10.40;;;;;;;18.90;96.22;101731.59;5069949;28;20668;-83
2022/07/21 08:35:13;;;;;;;16.77;9.57;;;;;;;18.78;97.01;101732.16;5057365;28;20017;-83
2022/07/21 08:37:39;;;;;;;18.17;10.57;;;;;;;18.64;97.95;101729.25;5052564;28;20274;-83
2022/07/21 08:40:08;;;;;;;20.15;11.18;;;;;;;18.56;99.73;101735.78;5046011;28;20079;-82
2022/07/21 08:42:34;;;;;;;20.73;11.18;;;;;;;18.50;100.00;101736.84;5067450;28;20024;-82
2022/07/21 08:44:59;;;;;;;21.30;11.88;;;;;;;18.43;100.00;101731.00;5069843;28;20451;-83
2022/07/21 08:47:26;;;;;;;21.88;11.82;;;;;;;18.40;100.00;101736.41;5065666;28;20063;-83
2022/07/21 08:49:53;;;;;;;20.08;11.05;;;;;;;18.30;100.00;101732.44;5049780;28;20121;-83
2022/07/21 08:52:18;;;;;;;21.60;11.23;;;;;;;18.22;100.00;101731.88;5061933;28;20478;-83
2022/07/21 08:54:44;;;;;;;20.15;11.07;;;;;;;18.20;100.00;101730.25;5047168;28;20074;-83
2022/07/21 08:57:09;;;;;;;18.35;11.25;;;;;;;18.17;100.00;101718.97;5063328;28;20100;-83
2022/07/21 08:59:35;;;;;;;19.50;10.65;;;;;;;18.16;100.00;101727.75;5061844;28;20107;-82
2022/07/21 09:02:00;;;;;;;18.52;11.43;;;;;;;18.16;100.00;101733.00;5050591;28;20076;-82
2022/07/21 09:04:29;;;;;;;18.33;10.70;;;;;;;18.17;100.00;101725.97;5066427;28;20402;-82
2022/07/21 09:06:57;;;;;;;17.50;10.48;;;;;;;18.23;100.00;101730.13;5053800;28;20298;-82
2022/07/21 09:09:24;;;;;;;19.05;10.70;;;;;;;18.25;100.00;101726.53;5061887;28;20473;-84
2022/07/21 09:11:51;;;;;;;18.98;11.27;;;;;;;18.31;100.00;101723.66;5073432;28;20090;-84
2022/07/21 09:14:22;;;;;;;18.52;10.77;;;;;;;18.38;100.00;101726.88;5063039;28;20070;-84
2022/07/21 09:16:53;;;;;;;16.83;10.13;;;;;;;18.39;100.00;101720.69;5072112;28;20012;-85
2022/07/21 09:19:26;;;;;;;20.00;11.80;;;;;;;18.43;100.00;101728.38;5046086;28;20325;-85
2022/07/21 09:21:54;;;;;;;17.08;10.45;;;;;;;18.44;100.00;101727.47;5073031;28;20395;-86
2022/07/21 09:24:26;;;;;;;21.65;10.82;;;;;;;18.49;100.00;101730.75;5053248;28;20025;-85
2022/07/21 09:27:05;;;;;;;20.15;11.20;;;;;;;18.52;100.00;101737.66;5061588;28;20128;-86
2022/07/21 09:29:37;;;;;;;19.70;10.98;;;;;;;18.57;100.00;101738.31;5051400;28;20021;-85
2022/07/21 09:32:30;;;;;;;18.25;11.07;;;;;;;18.65;100.00;101736.22;5070286;28;20024;-86
2022/07/21 09:34:58;;;;;;;20.58;11.70;;;;;;;18.68;100.00;101738.75;5072674;28;20024;-87
2022/07/21 09:37:24;;;;;;;17.73;10.68;;;;;;;18.72;100.00;101745.56;5066439;28;20047;-86
2022/07/21 09:39:55;;;;;;;19.17;10.93;;;;;;;18.76;100.00;101754.16;5064640;28;20025;-83
2022/07/21 09:42:30;;;;;;;19.25;11.60;;;;;;;18.75;100.00;101750.69;5046112;28;20363;-83
2022/07/21 09:45:02;;;;;;;19.25;11.25;;;;;;;18.73;100.00;101743.78;5072386;28;20028;-84
2022/07/21 09:47:30;;;;;;;17.13;11.02;;;;;;;18.73;100.00;101749.91;5073195;28;20021;-84
2022/07/21 09:49:57;;;;;;;16.15;10.70;;;;;;;18.77;100.00;101747.97;5072262;28;20479;-84
2022/07/21 09:52:32;;;;;;;16.38;9.85;;;;;;;18.83;100.00;101756.44;5062747;28;20032;-84
2022/07/21 09:55:04;;;;;;;16.90;10.73;;;;;;;18.89;100.00;101753.56;5064256;28;20501;-84
2022/07/21 09:57:29;;;;;;;15.30;9.68;;;;;;;18.90;100.00;101751.81;5072481;28;20111;-84
2022/07/21 09:59:56;;;;;;;15.48;10.57;;;;;;;18.88;100.00;101754.50;5072165;28;20020;-84
2022/07/21 10:02:27;;;;;;;14.93;10.60;;;;;;;18.81;100.00;101760.94;5072213;28;20021;-84
2022/07/21 10:05:01;;;;;;;17.48;10.45;;;;;;;18.75;100.00;101762.97;5071961;28;20111;-85
2022/07/21 10:07:27;;;;;;;13.30;9.18;;;;;;;18.65;100.00;101766.88;5071267;28;20376;-85
2022/07/21 10:09:54;;;;;;;13.25;9.25;;;;;;;18.51;100.00;101768.28;5064041;28;20074;-85
2022/07/21 10:12:20;;;;;;;13.98;9.93;;;;;;;18.47;100.00;101781.63;5052126;28;20402;-85
2022/07/21 10:14:49;;;;;;;14.68;10.27;;;;;;;18.46;100.00;101780.78;5066178;28;20031;-84
2022/07/21 10:17:18;;;;;;;13.20;10.07;;;;;;;18.46;100.00;101772.91;5072045;28;20062;-85
2022/07/21 10:19:57;;;;;;;14.15;10.30;;;;;;;18.50;100.00;101777.09;5056932;28;20108;-84
2022/07/21 10:22:40;;;;;;;14.20;10.05;;;;;;;18.53;100.00;101781.38;5051572;28;20052;-85
2022/07/21 10:25:07;;;;;;;12.52;9.45;;;;;;;18.51;100.00;101783.19;5056937;28;20613;-85
2022/07/21 10:27:32;;;;;;;12.63;9.52;;;;;;;18.47;100.00;101786.88;5060065;28;20025;-85
2022/07/21 10:30:04;;;;;;;11.32;9.23;;;;;;;18.45;100.00;101783.44;5056408;28;20017;-85
2022/07/21 10:32:36;;;;;;;13.57;10.05;;;;;;;18.42;100.00;101791.47;5059906;28;20028;-85
2022/07/21 10:35:26;;;;;;;9.93;7.70;;;;;;;18.43;100.00;101801.03;5051584;28;20510;-85
2022/07/21 10:37:52;;;;;;;12.20;8.38;;;;;;;18.42;100.00;101796.72;5051012;28;20387;-84
2022/07/21 10:40:20;;;;;;;10.48;8.18;;;;;;;18.37;100.00;101802.13;5071520;28;20024;-84
2022/07/21 10:43:05;;;;;;;12.18;8.15;;;;;;;18.33;100.00;101800.56;5071761;28;20032;-85
2022/07/21 10:45:37;;;;;;;11.52;8.68;;;;;;;18.24;100.00;101800.94;5071385;28;20032;-86
2022/07/21 10:48:07;;;;;;;13.48;9.40;;;;;;;18.23;100.00;101808.84;5067156;28;20036;-85
2022/07/21 10:50:35;;;;;;;15.20;8.48;;;;;;;18.24;100.00;101810.56;5051182;28;20056;-85
2022/07/21 10:53:03;;;;;;;12.80;8.48;;;;;;;18.21;100.00;101811.56;5066382;28;20108;-85
2022/07/21 10:55:36;;;;;;;13.32;8.70;;;;;;;18.21;100.00;101811.56;5060626;28;20029;-85
2022/07/21 10:58:23;;;;;;;13.32;9.07;;;;;;;18.23;100.00;101803.59;5068376;28;20020;-85
2022/07/21 11:00:56;;;;;;;14.15;10.38;;;;;;;18.22;100.00;101812.44;5070375;28;20096;-85
2022/07/21 11:03:21;;;;;;;13.85;9.90;;;;;;;18.28;100.00;101806.94;5049917;28;20556;-85
2022/07/21 11:06:05;;;;;;;15.18;9.70;;;;;;;18.34;100.00;101814.56;5063818;28;20045;-85
2022/07/21 11:08:44;;;;;;;15.18;10.38;;;;;;;18.37;100.00;101811.78;5048239;28;20403;-84
2022/07/21 11:11:18;;;;;;;16.30;11.55;;;;;;;18.39;100.00;101812.59;5070765;28;20052;-84